sensor_id;sensor_type;location;lat;lon;timestamp;P1;durP1;ratioP1;P2;durP2;ratioP2
21394;SDS011;10858;42.714;23.180;2023-02-28T00:01:23;2.08;;;1.98;;
21394;SDS011;10858;42.714;23.180;2023-02-28T00:03:49;2.13;;;1.58;;
21394;SDS011;10858;42.714;23.180;2023-02-28T00:06:16;2.72;;;2.22;;
21394;SDS011;10858;42.714;23.180;2023-02-28T00:08:42;1.40;;;1.30;;
21394;SDS011;10858;42.714;23.180;2023-02-28T00:11:09;4.20;;;3.13;;
21394;SDS011;10858;42.714;23.180;2023-02-28T00:13:41;5.97;;;4.18;;
21394;SDS011;10858;42.714;23.180;2023-02-28T00:16:12;0.88;;;0.88;;
21394;SDS011;10858;42.714;23.180;2023-02-28T00:18:40;2.28;;;2.15;;
21394;SDS011;10858;42.714;23.180;2023-02-28T00:21:07;3.15;;;2.95;;
21394;SDS011;10858;42.714;23.180;2023-02-28T00:23:34;2.25;;;2.15;;
21394;SDS011;10858;42.714;23.180;2023-02-28T00:26:01;1.63;;;1.48;;
21394;SDS011;10858;42.714;23.180;2023-02-28T00:28:27;3.83;;;3.45;;
21394;SDS011;10858;42.714;23.180;2023-02-28T00:30:54;5.72;;;2.97;;
21394;SDS011;10858;42.714;23.180;2023-02-28T00:33:22;1.48;;;1.42;;
21394;SDS011;10858;42.714;23.180;2023-02-28T00:35:48;3.75;;;3.45;;
21394;SDS011;10858;42.714;23.180;2023-02-28T00:38:14;2.53;;;2.40;;
21394;SDS011;10858;42.714;23.180;2023-02-28T00:40:41;5.40;;;3.15;;
21394;SDS011;10858;42.714;23.180;2023-02-28T00:43:07;1.77;;;1.40;;
21394;SDS011;10858;42.714;23.180;2023-02-28T00:45:33;6.38;;;3.25;;
21394;SDS011;10858;42.714;23.180;2023-02-28T00:48:00;6.57;;;1.90;;
21394;SDS011;10858;42.714;23.180;2023-02-28T00:50:26;3.75;;;3.42;;
21394;SDS011;10858;42.714;23.180;2023-02-28T00:52:52;2.47;;;2.38;;
21394;SDS011;10858;42.714;23.180;2023-02-28T00:55:19;3.13;;;2.95;;
21394;SDS011;10858;42.714;23.180;2023-02-28T00:57:45;1.45;;;1.40;;
21394;SDS011;10858;42.714;23.180;2023-02-28T01:00:12;2.28;;;2.00;;
21394;SDS011;10858;42.714;23.180;2023-02-28T01:02:38;4.85;;;4.35;;
21394;SDS011;10858;42.714;23.180;2023-02-28T01:05:04;2.20;;;2.08;;
21394;SDS011;10858;42.714;23.180;2023-02-28T01:07:31;5.57;;;2.97;;
21394;SDS011;10858;42.714;23.180;2023-02-28T01:09:57;4.07;;;3.72;;
21394;SDS011;10858;42.714;23.180;2023-02-28T01:12:24;10.70;;;4.85;;
21394;SDS011;10858;42.714;23.180;2023-02-28T01:14:50;2.70;;;2.53;;
21394;SDS011;10858;42.714;23.180;2023-02-28T01:17:16;3.40;;;1.98;;
21394;SDS011;10858;42.714;23.180;2023-02-28T01:19:42;1.38;;;1.38;;
21394;SDS011;10858;42.714;23.180;2023-02-28T01:22:09;3.50;;;2.50;;
21394;SDS011;10858;42.714;23.180;2023-02-28T01:24:35;11.05;;;2.78;;
21394;SDS011;10858;42.714;23.180;2023-02-28T01:27:02;3.63;;;2.45;;
21394;SDS011;10858;42.714;23.180;2023-02-28T01:29:28;3.20;;;2.90;;
21394;SDS011;10858;42.714;23.180;2023-02-28T01:31:54;2.03;;;1.88;;
21394;SDS011;10858;42.714;23.180;2023-02-28T01:34:22;2.63;;;2.42;;
21394;SDS011;10858;42.714;23.180;2023-02-28T01:36:48;2.42;;;2.22;;
21394;SDS011;10858;42.714;23.180;2023-02-28T01:39:14;2.45;;;2.25;;
21394;SDS011;10858;42.714;23.180;2023-02-28T01:41:40;3.17;;;2.55;;
21394;SDS011;10858;42.714;23.180;2023-02-28T01:47:11;2.10;;;2.00;;
21394;SDS011;10858;42.714;23.180;2023-02-28T01:49:38;1.48;;;1.42;;
21394;SDS011;10858;42.714;23.180;2023-02-28T01:52:05;14.60;;;4.63;;
21394;SDS011;10858;42.714;23.180;2023-02-28T01:54:33;2.25;;;2.13;;
21394;SDS011;10858;42.714;23.180;2023-02-28T01:57:20;2.17;;;2.05;;
21394;SDS011;10858;42.714;23.180;2023-02-28T02:02:23;2.10;;;2.00;;
21394;SDS011;10858;42.714;23.180;2023-02-28T02:04:58;5.45;;;2.85;;
21394;SDS011;10858;42.714;23.180;2023-02-28T02:07:29;2.88;;;2.10;;
21394;SDS011;10858;42.714;23.180;2023-02-28T02:10:21;3.67;;;3.38;;
21394;SDS011;10858;42.714;23.180;2023-02-28T02:18:51;3.03;;;2.65;;
21394;SDS011;10858;42.714;23.180;2023-02-28T02:40:46;3.22;;;2.95;;
21394;SDS011;10858;42.714;23.180;2023-02-28T02:43:19;2.15;;;2.03;;
21394;SDS011;10858;42.714;23.180;2023-02-28T02:46:04;5.40;;;3.80;;
21394;SDS011;10858;42.714;23.180;2023-02-28T02:49:05;5.60;;;3.95;;
21394;SDS011;10858;42.714;23.180;2023-02-28T02:51:35;2.92;;;2.72;;
21394;SDS011;10858;42.714;23.180;2023-02-28T02:57:06;2.10;;;1.95;;
21394;SDS011;10858;42.714;23.180;2023-02-28T02:59:42;7.68;;;1.90;;
21394;SDS011;10858;42.714;23.180;2023-02-28T03:02:10;4.05;;;3.22;;
21394;SDS011;10858;42.714;23.180;2023-02-28T03:04:42;0.95;;;0.95;;
21394;SDS011;10858;42.714;23.180;2023-02-28T03:07:12;2.70;;;1.85;;
21394;SDS011;10858;42.714;23.180;2023-02-28T03:09:38;3.95;;;2.85;;
21394;SDS011;10858;42.714;23.180;2023-02-28T03:12:06;4.53;;;3.03;;
21394;SDS011;10858;42.714;23.180;2023-02-28T03:14:52;1.33;;;1.30;;
21394;SDS011;10858;42.714;23.180;2023-02-28T03:31:07;1.30;;;1.30;;
21394;SDS011;10858;42.714;23.180;2023-02-28T03:34:06;1.92;;;1.83;;
21394;SDS011;10858;42.714;23.180;2023-02-28T03:36:43;5.78;;;2.30;;
21394;SDS011;10858;42.714;23.180;2023-02-28T03:39:26;3.78;;;3.17;;
21394;SDS011;10858;42.714;23.180;2023-02-28T03:42:00;2.42;;;2.25;;
21394;SDS011;10858;42.714;23.180;2023-02-28T03:44:30;2.53;;;2.35;;
21394;SDS011;10858;42.714;23.180;2023-02-28T03:47:09;1.05;;;1.05;;
21394;SDS011;10858;42.714;23.180;2023-02-28T03:49:53;0.95;;;0.85;;
21394;SDS011;10858;42.714;23.180;2023-02-28T03:53:53;2.38;;;1.70;;
21394;SDS011;10858;42.714;23.180;2023-02-28T03:56:11;1.60;;;1.50;;
21394;SDS011;10858;42.714;23.180;2023-02-28T03:58:54;1.63;;;1.52;;
21394;SDS011;10858;42.714;23.180;2023-02-28T04:01:57;2.50;;;2.28;;
21394;SDS011;10858;42.714;23.180;2023-02-28T04:04:29;4.00;;;1.98;;
21394;SDS011;10858;42.714;23.180;2023-02-28T04:07:05;2.22;;;2.03;;
21394;SDS011;10858;42.714;23.180;2023-02-28T04:09:36;1.63;;;1.58;;
21394;SDS011;10858;42.714;23.180;2023-02-28T04:12:03;2.17;;;1.90;;
21394;SDS011;10858;42.714;23.180;2023-02-28T04:14:30;1.52;;;1.52;;
21394;SDS011;10858;42.714;23.180;2023-02-28T04:17:02;5.68;;;1.58;;
21394;SDS011;10858;42.714;23.180;2023-02-28T04:19:33;0.80;;;0.80;;
21394;SDS011;10858;42.714;23.180;2023-02-28T04:21:59;1.92;;;1.83;;
21394;SDS011;10858;42.714;23.180;2023-02-28T04:24:26;2.85;;;1.83;;
21394;SDS011;10858;42.714;23.180;2023-02-28T04:26:54;1.38;;;1.35;;
21394;SDS011;10858;42.714;23.180;2023-02-28T04:29:23;1.73;;;1.63;;
21394;SDS011;10858;42.714;23.180;2023-02-28T04:31:51;5.05;;;2.47;;
21394;SDS011;10858;42.714;23.180;2023-02-28T04:34:19;2.03;;;1.85;;
21394;SDS011;10858;42.714;23.180;2023-02-28T04:36:46;2.55;;;2.08;;
21394;SDS011;10858;42.714;23.180;2023-02-28T04:39:15;2.15;;;1.95;;
21394;SDS011;10858;42.714;23.180;2023-02-28T04:41:43;4.00;;;1.38;;
21394;SDS011;10858;42.714;23.180;2023-02-28T04:44:16;4.30;;;2.58;;
21394;SDS011;10858;42.714;23.180;2023-02-28T04:47:12;2.20;;;2.08;;
21394;SDS011;10858;42.714;23.180;2023-02-28T04:49:38;3.17;;;2.45;;
21394;SDS011;10858;42.714;23.180;2023-02-28T04:52:09;2.22;;;1.55;;
21394;SDS011;10858;42.714;23.180;2023-02-28T04:54:36;4.38;;;2.53;;
21394;SDS011;10858;42.714;23.180;2023-02-28T04:57:04;1.10;;;1.10;;
21394;SDS011;10858;42.714;23.180;2023-02-28T04:59:30;2.97;;;1.92;;
21394;SDS011;10858;42.714;23.180;2023-02-28T05:01:57;1.90;;;1.80;;
21394;SDS011;10858;42.714;23.180;2023-02-28T05:04:27;1.00;;;1.00;;
21394;SDS011;10858;42.714;23.180;2023-02-28T05:07:15;2.42;;;1.50;;
21394;SDS011;10858;42.714;23.180;2023-02-28T05:09:41;3.17;;;2.88;;
21394;SDS011;10858;42.714;23.180;2023-02-28T05:12:08;2.05;;;1.95;;
21394;SDS011;10858;42.714;23.180;2023-02-28T05:14:35;2.75;;;2.50;;
21394;SDS011;10858;42.714;23.180;2023-02-28T05:17:01;3.38;;;3.03;;
21394;SDS011;10858;42.714;23.180;2023-02-28T05:19:27;3.80;;;3.42;;
21394;SDS011;10858;42.714;23.180;2023-02-28T05:21:54;5.47;;;2.75;;
21394;SDS011;10858;42.714;23.180;2023-02-28T05:24:20;2.17;;;1.98;;
21394;SDS011;10858;42.714;23.180;2023-02-28T05:26:50;8.18;;;3.45;;
21394;SDS011;10858;42.714;23.180;2023-02-28T05:29:18;0.98;;;0.98;;
21394;SDS011;10858;42.714;23.180;2023-02-28T05:31:44;3.38;;;2.53;;
21394;SDS011;10858;42.714;23.180;2023-02-28T05:34:11;2.72;;;2.13;;
21394;SDS011;10858;42.714;23.180;2023-02-28T05:36:38;4.40;;;2.22;;
21394;SDS011;10858;42.714;23.180;2023-02-28T05:39:05;3.50;;;3.17;;
21394;SDS011;10858;42.714;23.180;2023-02-28T05:41:32;2.47;;;2.10;;
21394;SDS011;10858;42.714;23.180;2023-02-28T05:43:58;6.00;;;3.28;;
21394;SDS011;10858;42.714;23.180;2023-02-28T05:46:25;3.95;;;3.00;;
21394;SDS011;10858;42.714;23.180;2023-02-28T05:48:51;1.48;;;1.38;;
21394;SDS011;10858;42.714;23.180;2023-02-28T05:51:18;2.03;;;1.92;;
21394;SDS011;10858;42.714;23.180;2023-02-28T05:53:44;1.27;;;1.20;;
21394;SDS011;10858;42.714;23.180;2023-02-28T05:56:10;6.00;;;2.38;;
21394;SDS011;10858;42.714;23.180;2023-02-28T05:58:37;1.15;;;1.13;;
21394;SDS011;10858;42.714;23.180;2023-02-28T06:03:58;2.42;;;2.25;;
21394;SDS011;10858;42.714;23.180;2023-02-28T06:06:25;1.60;;;1.50;;
21394;SDS011;10858;42.714;23.180;2023-02-28T06:08:52;5.05;;;3.22;;
21394;SDS011;10858;42.714;23.180;2023-02-28T06:11:19;2.42;;;2.22;;
21394;SDS011;10858;42.714;23.180;2023-02-28T06:13:45;3.05;;;2.58;;
21394;SDS011;10858;42.714;23.180;2023-02-28T06:16:11;2.67;;;2.47;;
21394;SDS011;10858;42.714;23.180;2023-02-28T06:18:38;7.80;;;4.35;;
21394;SDS011;10858;42.714;23.180;2023-02-28T06:21:04;4.75;;;3.40;;
21394;SDS011;10858;42.714;23.180;2023-02-28T06:23:30;2.17;;;2.08;;
21394;SDS011;10858;42.714;23.180;2023-02-28T06:25:56;9.90;;;2.80;;
21394;SDS011;10858;42.714;23.180;2023-02-28T06:28:23;3.75;;;3.35;;
21394;SDS011;10858;42.714;23.180;2023-02-28T06:30:51;5.63;;;3.70;;
21394;SDS011;10858;42.714;23.180;2023-02-28T06:33:17;3.50;;;3.20;;
21394;SDS011;10858;42.714;23.180;2023-02-28T06:35:44;7.25;;;3.55;;
21394;SDS011;10858;42.714;23.180;2023-02-28T06:38:11;3.15;;;2.95;;
21394;SDS011;10858;42.714;23.180;2023-02-28T06:40:37;1.23;;;1.23;;
21394;SDS011;10858;42.714;23.180;2023-02-28T06:43:04;4.88;;;3.00;;
21394;SDS011;10858;42.714;23.180;2023-02-28T06:45:30;7.05;;;5.53;;
21394;SDS011;10858;42.714;23.180;2023-02-28T06:47:56;3.80;;;2.97;;
21394;SDS011;10858;42.714;23.180;2023-02-28T06:50:23;2.10;;;1.90;;
21394;SDS011;10858;42.714;23.180;2023-02-28T06:52:49;1.65;;;1.55;;
21394;SDS011;10858;42.714;23.180;2023-02-28T06:55:18;6.07;;;3.03;;
21394;SDS011;10858;42.714;23.180;2023-02-28T06:57:45;2.10;;;2.00;;
21394;SDS011;10858;42.714;23.180;2023-02-28T07:00:11;6.82;;;4.32;;
21394;SDS011;10858;42.714;23.180;2023-02-28T07:02:38;4.70;;;3.35;;
21394;SDS011;10858;42.714;23.180;2023-02-28T07:05:05;2.22;;;1.83;;
21394;SDS011;10858;42.714;23.180;2023-02-28T07:07:31;4.63;;;4.28;;
21394;SDS011;10858;42.714;23.180;2023-02-28T07:09:58;4.47;;;3.63;;
21394;SDS011;10858;42.714;23.180;2023-02-28T07:12:24;2.67;;;2.47;;
21394;SDS011;10858;42.714;23.180;2023-02-28T07:14:50;6.70;;;4.28;;
21394;SDS011;10858;42.714;23.180;2023-02-28T07:17:16;4.75;;;3.80;;
21394;SDS011;10858;42.714;23.180;2023-02-28T07:19:43;5.03;;;4.03;;
21394;SDS011;10858;42.714;23.180;2023-02-28T07:22:09;4.57;;;2.95;;
21394;SDS011;10858;42.714;23.180;2023-02-28T07:24:35;4.82;;;2.35;;
21394;SDS011;10858;42.714;23.180;2023-02-28T07:27:01;4.68;;;3.20;;
21394;SDS011;10858;42.714;23.180;2023-02-28T07:29:28;5.53;;;3.75;;
21394;SDS011;10858;42.714;23.180;2023-02-28T07:31:54;10.32;;;6.72;;
21394;SDS011;10858;42.714;23.180;2023-02-28T07:34:21;12.10;;;8.27;;
21394;SDS011;10858;42.714;23.180;2023-02-28T07:36:47;4.55;;;4.15;;
21394;SDS011;10858;42.714;23.180;2023-02-28T07:39:18;4.18;;;2.90;;
21394;SDS011;10858;42.714;23.180;2023-02-28T07:41:45;3.72;;;3.42;;
21394;SDS011;10858;42.714;23.180;2023-02-28T07:44:11;5.68;;;4.63;;
21394;SDS011;10858;42.714;23.180;2023-02-28T07:46:38;7.63;;;3.45;;
21394;SDS011;10858;42.714;23.180;2023-02-28T07:49:04;5.60;;;3.95;;
21394;SDS011;10858;42.714;23.180;2023-02-28T07:51:31;8.93;;;6.45;;
21394;SDS011;10858;42.714;23.180;2023-02-28T07:53:57;11.75;;;5.18;;
21394;SDS011;10858;42.714;23.180;2023-02-28T07:56:23;7.15;;;4.30;;
21394;SDS011;10858;42.714;23.180;2023-02-28T07:58:50;4.30;;;4.00;;
21394;SDS011;10858;42.714;23.180;2023-02-28T08:01:16;6.18;;;2.00;;
21394;SDS011;10858;42.714;23.180;2023-02-28T08:03:44;15.70;;;4.70;;
21394;SDS011;10858;42.714;23.180;2023-02-28T08:06:15;4.78;;;4.20;;
21394;SDS011;10858;42.714;23.180;2023-02-28T08:08:46;5.35;;;4.10;;
21394;SDS011;10858;42.714;23.180;2023-02-28T08:11:13;4.03;;;3.72;;
21394;SDS011;10858;42.714;23.180;2023-02-28T08:13:41;12.77;;;3.60;;
21394;SDS011;10858;42.714;23.180;2023-02-28T08:16:09;11.95;;;4.82;;
21394;SDS011;10858;42.714;23.180;2023-02-28T08:18:36;5.20;;;4.15;;
21394;SDS011;10858;42.714;23.180;2023-02-28T08:21:08;7.18;;;3.60;;
21394;SDS011;10858;42.714;23.180;2023-02-28T08:23:35;13.25;;;2.97;;
21394;SDS011;10858;42.714;23.180;2023-02-28T08:26:01;8.88;;;6.53;;
21394;SDS011;10858;42.714;23.180;2023-02-28T08:28:28;8.65;;;4.43;;
21394;SDS011;10858;42.714;23.180;2023-02-28T08:30:54;7.07;;;6.38;;
21394;SDS011;10858;42.714;23.180;2023-02-28T08:33:21;6.88;;;5.68;;
21394;SDS011;10858;42.714;23.180;2023-02-28T08:35:51;8.23;;;5.55;;
21394;SDS011;10858;42.714;23.180;2023-02-28T08:38:21;5.38;;;3.78;;
21394;SDS011;10858;42.714;23.180;2023-02-28T08:40:48;4.55;;;4.10;;
21394;SDS011;10858;42.714;23.180;2023-02-28T08:43:27;12.68;;;4.47;;
21394;SDS011;10858;42.714;23.180;2023-02-28T08:45:54;7.18;;;3.60;;
21394;SDS011;10858;42.714;23.180;2023-02-28T08:48:24;13.85;;;5.85;;
21394;SDS011;10858;42.714;23.180;2023-02-28T08:53:28;8.05;;;4.88;;
21394;SDS011;10858;42.714;23.180;2023-02-28T08:56:05;5.28;;;3.85;;
21394;SDS011;10858;42.714;23.180;2023-02-28T08:58:35;6.43;;;5.85;;
21394;SDS011;10858;42.714;23.180;2023-02-28T09:01:07;13.10;;;5.82;;
21394;SDS011;10858;42.714;23.180;2023-02-28T09:03:35;7.22;;;4.43;;
21394;SDS011;10858;42.714;23.180;2023-02-28T09:06:01;9.45;;;4.57;;
21394;SDS011;10858;42.714;23.180;2023-02-28T09:08:28;13.02;;;6.88;;
21394;SDS011;10858;42.714;23.180;2023-02-28T09:10:55;5.35;;;4.10;;
21394;SDS011;10858;42.714;23.180;2023-02-28T09:13:23;6.30;;;2.95;;
21394;SDS011;10858;42.714;23.180;2023-02-28T09:15:50;6.35;;;3.78;;
21394;SDS011;10858;42.714;23.180;2023-02-28T09:18:16;3.75;;;3.05;;
21394;SDS011;10858;42.714;23.180;2023-02-28T09:20:43;6.97;;;5.70;;
21394;SDS011;10858;42.714;23.180;2023-02-28T09:23:10;5.47;;;4.60;;
21394;SDS011;10858;42.714;23.180;2023-02-28T09:25:37;4.03;;;3.72;;
21394;SDS011;10858;42.714;23.180;2023-02-28T09:28:10;16.60;;;7.68;;
21394;SDS011;10858;42.714;23.180;2023-02-28T09:30:36;10.23;;;4.25;;
21394;SDS011;10858;42.714;23.180;2023-02-28T09:33:02;7.72;;;6.03;;
21394;SDS011;10858;42.714;23.180;2023-02-28T09:35:29;5.20;;;3.88;;
21394;SDS011;10858;42.714;23.180;2023-02-28T09:37:55;9.25;;;5.55;;
21394;SDS011;10858;42.714;23.180;2023-02-28T09:40:23;11.57;;;6.18;;
21394;SDS011;10858;42.714;23.180;2023-02-28T09:42:51;5.05;;;4.18;;
21394;SDS011;10858;42.714;23.180;2023-02-28T09:48:09;4.20;;;3.80;;
21394;SDS011;10858;42.714;23.180;2023-02-28T09:50:41;13.85;;;5.47;;
21394;SDS011;10858;42.714;23.180;2023-02-28T09:53:26;4.38;;;3.95;;
21394;SDS011;10858;42.714;23.180;2023-02-28T09:56:05;9.30;;;6.07;;
21394;SDS011;10858;42.714;23.180;2023-02-28T10:06:51;5.50;;;3.90;;
21394;SDS011;10858;42.714;23.180;2023-02-28T10:09:19;7.25;;;4.82;;
21394;SDS011;10858;42.714;23.180;2023-02-28T10:11:55;8.77;;;4.55;;
21394;SDS011;10858;42.714;23.180;2023-02-28T10:14:26;11.35;;;7.38;;
21394;SDS011;10858;42.714;23.180;2023-02-28T10:16:55;7.63;;;6.15;;
21394;SDS011;10858;42.714;23.180;2023-02-28T10:22:22;6.68;;;4.80;;
21394;SDS011;10858;42.714;23.180;2023-02-28T10:24:55;6.53;;;4.35;;
21394;SDS011;10858;42.714;23.180;2023-02-28T10:27:26;7.13;;;4.90;;
21394;SDS011;10858;42.714;23.180;2023-02-28T10:29:55;4.32;;;4.03;;
21394;SDS011;10858;42.714;23.180;2023-02-28T10:32:25;13.95;;;5.10;;
21394;SDS011;10858;42.714;23.180;2023-02-28T10:34:57;5.10;;;3.78;;
21394;SDS011;10858;42.714;23.180;2023-02-28T10:37:37;2.80;;;2.55;;
21394;SDS011;10858;42.714;23.180;2023-02-28T10:40:11;7.40;;;5.53;;
21394;SDS011;10858;42.714;23.180;2023-02-28T10:45:28;7.35;;;3.33;;
21394;SDS011;10858;42.714;23.180;2023-02-28T10:48:03;22.17;;;4.35;;
21394;SDS011;10858;42.714;23.180;2023-02-28T10:53:16;3.08;;;2.30;;
21394;SDS011;10858;42.714;23.180;2023-02-28T11:01:17;6.45;;;4.93;;
21394;SDS011;10858;42.714;23.180;2023-02-28T11:03:47;9.48;;;5.15;;
21394;SDS011;10858;42.714;23.180;2023-02-28T11:06:18;12.02;;;5.05;;
21394;SDS011;10858;42.714;23.180;2023-02-28T11:08:47;6.45;;;4.05;;
21394;SDS011;10858;42.714;23.180;2023-02-28T11:11:16;5.38;;;4.03;;
21394;SDS011;10858;42.714;23.180;2023-02-28T11:13:44;2.92;;;2.70;;
21394;SDS011;10858;42.714;23.180;2023-02-28T11:16:12;9.50;;;3.53;;
21394;SDS011;10858;42.714;23.180;2023-02-28T11:18:50;4.13;;;3.83;;
21394;SDS011;10858;42.714;23.180;2023-02-28T11:21:31;4.70;;;3.35;;
21394;SDS011;10858;42.714;23.180;2023-02-28T11:24:24;5.55;;;4.05;;
21394;SDS011;10858;42.714;23.180;2023-02-28T11:26:54;4.60;;;3.63;;
21394;SDS011;10858;42.714;23.180;2023-02-28T11:32:32;13.02;;;3.72;;
21394;SDS011;10858;42.714;23.180;2023-02-28T11:34:44;4.90;;;2.53;;
21394;SDS011;10858;42.714;23.180;2023-02-28T11:37:15;3.85;;;2.95;;
21394;SDS011;10858;42.714;23.180;2023-02-28T11:39:43;7.40;;;4.50;;
21394;SDS011;10858;42.714;23.180;2023-02-28T11:53:35;4.53;;;2.58;;
21394;SDS011;10858;42.714;23.180;2023-02-28T11:58:33;3.33;;;2.47;;
21394;SDS011;10858;42.714;23.180;2023-02-28T12:04:15;19.25;;;4.03;;
21394;SDS011;10858;42.714;23.180;2023-02-28T12:06:57;2.85;;;2.30;;
21394;SDS011;10858;42.714;23.180;2023-02-28T12:09:37;1.85;;;1.73;;
21394;SDS011;10858;42.714;23.180;2023-02-28T12:28:28;3.45;;;2.13;;
21394;SDS011;10858;42.714;23.180;2023-02-28T12:31:05;6.35;;;2.42;;
21394;SDS011;10858;42.714;23.180;2023-02-28T12:33:43;3.25;;;2.30;;
21394;SDS011;10858;42.714;23.180;2023-02-28T12:36:14;1.65;;;1.55;;
21394;SDS011;10858;42.714;23.180;2023-02-28T12:41:19;3.03;;;1.95;;
21394;SDS011;10858;42.714;23.180;2023-02-28T12:44:07;1.92;;;1.83;;
21394;SDS011;10858;42.714;23.180;2023-02-28T12:48:59;2.10;;;1.90;;
21394;SDS011;10858;42.714;23.180;2023-02-28T12:51:31;4.53;;;2.53;;
21394;SDS011;10858;42.714;23.180;2023-02-28T13:10:12;2.45;;;2.25;;
21394;SDS011;10858;42.714;23.180;2023-02-28T13:12:51;2.45;;;2.25;;
21394;SDS011;10858;42.714;23.180;2023-02-28T13:15:26;2.00;;;1.90;;
21394;SDS011;10858;42.714;23.180;2023-02-28T13:17:58;2.55;;;1.60;;
21394;SDS011;10858;42.714;23.180;2023-02-28T13:20:29;5.68;;;2.10;;
21394;SDS011;10858;42.714;23.180;2023-02-28T13:23:02;2.60;;;2.40;;
21394;SDS011;10858;42.714;23.180;2023-02-28T13:25:50;1.00;;;1.00;;
21394;SDS011;10858;42.714;23.180;2023-02-28T13:28:57;2.47;;;1.45;;
21394;SDS011;10858;42.714;23.180;2023-02-28T13:31:13;46.72;;;3.20;;
21394;SDS011;10858;42.714;23.180;2023-02-28T13:38:47;15.77;;;3.10;;
21394;SDS011;10858;42.714;23.180;2023-02-28T13:44:09;21.92;;;2.78;;
21394;SDS011;10858;42.714;23.180;2023-02-28T13:47:23;4.28;;;2.13;;
21394;SDS011;10858;42.714;23.180;2023-02-28T13:49:26;1.55;;;1.38;;
21394;SDS011;10858;42.714;23.180;2023-02-28T14:11:27;1.52;;;1.42;;
21394;SDS011;10858;42.714;23.180;2023-02-28T14:13:57;1.23;;;1.23;;
21394;SDS011;10858;42.714;23.180;2023-02-28T14:16:24;1.17;;;0.98;;
21394;SDS011;10858;42.714;23.180;2023-02-28T14:18:59;13.13;;;3.63;;
21394;SDS011;10858;42.714;23.180;2023-02-28T14:21:31;0.77;;;0.77;;
21394;SDS011;10858;42.714;23.180;2023-02-28T14:29:46;2.15;;;1.90;;
21394;SDS011;10858;42.714;23.180;2023-02-28T14:32:41;9.75;;;1.40;;
21394;SDS011;10858;42.714;23.180;2023-02-28T14:35:35;3.05;;;2.00;;
21394;SDS011;10858;42.714;23.180;2023-02-28T14:38:17;2.05;;;1.15;;
21394;SDS011;10858;42.714;23.180;2023-02-28T14:40:52;0.73;;;0.73;;
21394;SDS011;10858;42.714;23.180;2023-02-28T14:43:24;3.13;;;2.85;;
21394;SDS011;10858;42.714;23.180;2023-02-28T14:45:52;3.67;;;1.02;;
21394;SDS011;10858;42.714;23.180;2023-02-28T14:48:22;1.33;;;1.25;;
21394;SDS011;10858;42.714;23.180;2023-02-28T14:50:54;1.33;;;1.23;;
21394;SDS011;10858;42.714;23.180;2023-02-28T14:53:29;3.00;;;1.73;;
21394;SDS011;10858;42.714;23.180;2023-02-28T14:56:01;5.80;;;1.95;;
21394;SDS011;10858;42.714;23.180;2023-02-28T14:58:29;3.72;;;2.67;;
21394;SDS011;10858;42.714;23.180;2023-02-28T15:00:58;3.30;;;2.35;;
21394;SDS011;10858;42.714;23.180;2023-02-28T15:03:31;3.30;;;2.28;;
21394;SDS011;10858;42.714;23.180;2023-02-28T15:06:03;1.02;;;1.02;;
21394;SDS011;10858;42.714;23.180;2023-02-28T15:08:31;4.70;;;1.92;;
21394;SDS011;10858;42.714;23.180;2023-02-28T15:13:36;0.88;;;0.88;;
21394;SDS011;10858;42.714;23.180;2023-02-28T15:16:29;3.47;;;1.38;;
21394;SDS011;10858;42.714;23.180;2023-02-28T15:21:28;3.33;;;1.85;;
21394;SDS011;10858;42.714;23.180;2023-02-28T15:26:50;1.58;;;1.48;;
21394;SDS011;10858;42.714;23.180;2023-02-28T15:29:32;1.58;;;1.48;;
21394;SDS011;10858;42.714;23.180;2023-02-28T15:32:20;2.38;;;1.35;;
21394;SDS011;10858;42.714;23.180;2023-02-28T15:34:57;2.85;;;2.03;;
21394;SDS011;10858;42.714;23.180;2023-02-28T15:37:46;2.83;;;1.45;;
21394;SDS011;10858;42.714;23.180;2023-02-28T15:40:22;2.15;;;1.95;;
21394;SDS011;10858;42.714;23.180;2023-02-28T15:43:13;4.68;;;3.65;;
21394;SDS011;10858;42.714;23.180;2023-02-28T15:45:48;9.57;;;1.92;;
21394;SDS011;10858;42.714;23.180;2023-02-28T15:48:29;6.05;;;1.70;;
21394;SDS011;10858;42.714;23.180;2023-02-28T15:51:16;3.38;;;3.15;;
21394;SDS011;10858;42.714;23.180;2023-02-28T15:53:59;2.85;;;1.83;;
21394;SDS011;10858;42.714;23.180;2023-02-28T15:56:39;1.48;;;1.38;;
21394;SDS011;10858;42.714;23.180;2023-02-28T15:59:16;1.33;;;1.17;;
21394;SDS011;10858;42.714;23.180;2023-02-28T16:01:45;2.40;;;1.95;;
21394;SDS011;10858;42.714;23.180;2023-02-28T16:04:15;2.20;;;2.08;;
21394;SDS011;10858;42.714;23.180;2023-02-28T16:09:30;1.67;;;1.58;;
21394;SDS011;10858;42.714;23.180;2023-02-28T16:11:59;1.67;;;1.58;;
21394;SDS011;10858;42.714;23.180;2023-02-28T16:14:27;1.55;;;1.45;;
21394;SDS011;10858;42.714;23.180;2023-02-28T16:17:03;2.35;;;2.05;;
21394;SDS011;10858;42.714;23.180;2023-02-28T16:19:31;2.42;;;1.60;;
21394;SDS011;10858;42.714;23.180;2023-02-28T16:21:57;1.20;;;1.20;;
21394;SDS011;10858;42.714;23.180;2023-02-28T16:24:23;1.92;;;1.83;;
21394;SDS011;10858;42.714;23.180;2023-02-28T16:26:50;1.58;;;1.50;;
21394;SDS011;10858;42.714;23.180;2023-02-28T16:29:21;1.40;;;1.30;;
21394;SDS011;10858;42.714;23.180;2023-02-28T16:31:51;2.53;;;2.33;;
21394;SDS011;10858;42.714;23.180;2023-02-28T16:34:19;1.10;;;1.10;;
21394;SDS011;10858;42.714;23.180;2023-02-28T16:36:46;1.27;;;1.17;;
21394;SDS011;10858;42.714;23.180;2023-02-28T16:39:13;0.85;;;0.85;;
21394;SDS011;10858;42.714;23.180;2023-02-28T16:41:41;3.08;;;2.15;;
21394;SDS011;10858;42.714;23.180;2023-02-28T16:44:11;0.95;;;0.95;;
21394;SDS011;10858;42.714;23.180;2023-02-28T16:46:46;2.35;;;1.58;;
21394;SDS011;10858;42.714;23.180;2023-02-28T16:49:12;1.75;;;1.60;;
21394;SDS011;10858;42.714;23.180;2023-02-28T16:51:39;0.95;;;0.95;;
21394;SDS011;10858;42.714;23.180;2023-02-28T16:54:05;3.92;;;2.95;;
21394;SDS011;10858;42.714;23.180;2023-02-28T16:56:31;1.92;;;1.73;;
21394;SDS011;10858;42.714;23.180;2023-02-28T16:58:59;18.60;;;3.13;;
21394;SDS011;10858;42.714;23.180;2023-02-28T17:01:27;1.80;;;1.70;;
21394;SDS011;10858;42.714;23.180;2023-02-28T17:03:54;1.08;;;1.05;;
21394;SDS011;10858;42.714;23.180;2023-02-28T17:06:24;1.17;;;1.08;;
21394;SDS011;10858;42.714;23.180;2023-02-28T17:08:55;1.15;;;1.15;;
21394;SDS011;10858;42.714;23.180;2023-02-28T17:11:23;1.05;;;1.02;;
21394;SDS011;10858;42.714;23.180;2023-02-28T17:13:50;1.77;;;1.67;;
21394;SDS011;10858;42.714;23.180;2023-02-28T17:18:50;1.23;;;1.15;;
21394;SDS011;10858;42.714;23.180;2023-02-28T17:21:18;1.23;;;1.15;;
21394;SDS011;10858;42.714;23.180;2023-02-28T17:23:44;2.90;;;2.50;;
21394;SDS011;10858;42.714;23.180;2023-02-28T17:26:14;1.05;;;1.05;;
21394;SDS011;10858;42.714;23.180;2023-02-28T17:28:45;2.95;;;1.55;;
21394;SDS011;10858;42.714;23.180;2023-02-28T17:31:12;1.13;;;0.90;;
21394;SDS011;10858;42.714;23.180;2023-02-28T17:33:38;1.08;;;1.08;;
21394;SDS011;10858;42.714;23.180;2023-02-28T17:36:05;0.95;;;0.95;;
21394;SDS011;10858;42.714;23.180;2023-02-28T17:38:35;0.47;;;0.47;;
21394;SDS011;10858;42.714;23.180;2023-02-28T17:41:01;1.52;;;1.42;;
21394;SDS011;10858;42.714;23.180;2023-02-28T17:43:27;4.03;;;2.70;;
21394;SDS011;10858;42.714;23.180;2023-02-28T17:45:53;1.38;;;1.20;;
21394;SDS011;10858;42.714;23.180;2023-02-28T17:48:20;5.07;;;2.08;;
21394;SDS011;10858;42.714;23.180;2023-02-28T17:50:47;2.20;;;1.55;;
21394;SDS011;10858;42.714;23.180;2023-02-28T17:53:13;0.68;;;0.68;;
21394;SDS011;10858;42.714;23.180;2023-02-28T17:55:39;1.27;;;1.20;;